sensor_id;sensor_type;location;lat;lon;timestamp;temperature;humidity
32201;DHT22;18701;45.588;5.288;2024-03-22T00:01:09;14.50;99.90
32201;DHT22;18701;45.588;5.288;2024-03-22T00:03:34;14.60;99.90
32201;DHT22;18701;45.588;5.288;2024-03-22T00:06:00;14.50;99.90
32201;DHT22;18701;45.588;5.288;2024-03-22T00:08:26;14.40;99.90
32201;DHT22;18701;45.588;5.288;2024-03-22T00:10:51;14.30;99.90
32201;DHT22;18701;45.588;5.288;2024-03-22T00:13:17;14.40;99.90
32201;DHT22;18701;45.588;5.288;2024-03-22T00:15:43;14.10;99.90
32201;DHT22;18701;45.588;5.288;2024-03-22T00:18:10;14.00;99.90
32201;DHT22;18701;45.588;5.288;2024-03-22T00:20:35;14.00;99.90
32201;DHT22;18701;45.588;5.288;2024-03-22T00:23:01;13.90;99.90
32201;DHT22;18701;45.588;5.288;2024-03-22T00:25:26;14.10;99.90
32201;DHT22;18701;45.588;5.288;2024-03-22T00:27:52;14.10;99.90
32201;DHT22;18701;45.588;5.288;2024-03-22T00:30:18;14.20;99.90
32201;DHT22;18701;45.588;5.288;2024-03-22T00:32:43;13.80;99.90
32201;DHT22;18701;45.588;5.288;2024-03-22T00:35:10;13.90;99.90
32201;DHT22;18701;45.588;5.288;2024-03-22T00:37:36;14.00;99.90
32201;DHT22;18701;45.588;5.288;2024-03-22T00:40:01;14.10;99.90
32201;DHT22;18701;45.588;5.288;2024-03-22T00:42:27;14.20;99.90
32201;DHT22;18701;45.588;5.288;2024-03-22T00:44:53;14.20;99.90
32201;DHT22;18701;45.588;5.288;2024-03-22T00:47:20;14.10;99.90
32201;DHT22;18701;45.588;5.288;2024-03-22T00:49:46;14.20;99.90
32201;DHT22;18701;45.588;5.288;2024-03-22T00:52:11;14.30;99.90
32201;DHT22;18701;45.588;5.288;2024-03-22T00:54:37;14.20;99.90
32201;DHT22;18701;45.588;5.288;2024-03-22T00:57:04;14.20;99.90
32201;DHT22;18701;45.588;5.288;2024-03-22T00:59:30;14.30;99.90
32201;DHT22;18701;45.588;5.288;2024-03-22T01:01:55;14.20;99.90
32201;DHT22;18701;45.588;5.288;2024-03-22T01:04:21;14.30;99.90
32201;DHT22;18701;45.588;5.288;2024-03-22T01:06:47;14.20;99.90
32201;DHT22;18701;45.588;5.288;2024-03-22T01:09:12;13.90;99.90
32201;DHT22;18701;45.588;5.288;2024-03-22T01:11:38;14.00;99.90
32201;DHT22;18701;45.588;5.288;2024-03-22T01:14:03;14.20;99.90
32201;DHT22;18701;45.588;5.288;2024-03-22T01:16:29;14.20;99.90
32201;DHT22;18701;45.588;5.288;2024-03-22T01:18:54;14.10;99.90
32201;DHT22;18701;45.588;5.288;2024-03-22T01:21:20;14.00;99.90
32201;DHT22;18701;45.588;5.288;2024-03-22T01:23:53;13.90;99.90
32201;DHT22;18701;45.588;5.288;2024-03-22T01:26:18;14.00;99.90
32201;DHT22;18701;45.588;5.288;2024-03-22T01:28:44;14.00;99.90
32201;DHT22;18701;45.588;5.288;2024-03-22T01:31:09;13.90;99.90
32201;DHT22;18701;45.588;5.288;2024-03-22T01:33:35;13.80;99.90
32201;DHT22;18701;45.588;5.288;2024-03-22T01:36:00;14.00;99.90
32201;DHT22;18701;45.588;5.288;2024-03-22T01:38:26;13.90;99.90
32201;DHT22;18701;45.588;5.288;2024-03-22T01:40:52;13.80;99.90
32201;DHT22;18701;45.588;5.288;2024-03-22T01:43:17;13.70;99.90
32201;DHT22;18701;45.588;5.288;2024-03-22T01:45:43;13.80;99.90
32201;DHT22;18701;45.588;5.288;2024-03-22T01:48:08;13.90;99.90
32201;DHT22;18701;45.588;5.288;2024-03-22T01:50:34;13.80;99.90
32201;DHT22;18701;45.588;5.288;2024-03-22T01:53:01;13.70;99.90
32201;DHT22;18701;45.588;5.288;2024-03-22T01:55:27;13.60;99.90
32201;DHT22;18701;45.588;5.288;2024-03-22T01:57:54;13.90;99.90
32201;DHT22;18701;45.588;5.288;2024-03-22T02:00:20;14.00;99.90
32201;DHT22;18701;45.588;5.288;2024-03-22T02:02:46;13.80;99.90
32201;DHT22;18701;45.588;5.288;2024-03-22T02:05:16;14.00;99.90
32201;DHT22;18701;45.588;5.288;2024-03-22T02:07:45;13.70;99.90
32201;DHT22;18701;45.588;5.288;2024-03-22T02:10:11;13.70;99.90
32201;DHT22;18701;45.588;5.288;2024-03-22T02:12:38;13.60;99.90
32201;DHT22;18701;45.588;5.288;2024-03-22T02:15:04;13.70;99.90
32201;DHT22;18701;45.588;5.288;2024-03-22T02:17:30;13.50;99.90
32201;DHT22;18701;45.588;5.288;2024-03-22T02:19:55;13.60;99.90
32201;DHT22;18701;45.588;5.288;2024-03-22T02:22:21;13.70;99.90
32201;DHT22;18701;45.588;5.288;2024-03-22T02:24:46;13.80;99.90
32201;DHT22;18701;45.588;5.288;2024-03-22T02:27:12;13.60;99.90
32201;DHT22;18701;45.588;5.288;2024-03-22T02:29:37;13.60;99.90
32201;DHT22;18701;45.588;5.288;2024-03-22T02:32:03;13.70;99.90
32201;DHT22;18701;45.588;5.288;2024-03-22T02:34:29;13.70;99.90
32201;DHT22;18701;45.588;5.288;2024-03-22T02:36:54;13.70;99.90
32201;DHT22;18701;45.588;5.288;2024-03-22T02:39:20;13.60;99.90
32201;DHT22;18701;45.588;5.288;2024-03-22T02:41:46;13.70;99.90
32201;DHT22;18701;45.588;5.288;2024-03-22T02:44:11;13.60;99.90
32201;DHT22;18701;45.588;5.288;2024-03-22T02:46:37;13.60;99.90
32201;DHT22;18701;45.588;5.288;2024-03-22T02:49:02;13.70;99.90
32201;DHT22;18701;45.588;5.288;2024-03-22T02:51:28;13.40;99.90
32201;DHT22;18701;45.588;5.288;2024-03-22T02:53:54;13.60;99.90
32201;DHT22;18701;45.588;5.288;2024-03-22T02:56:20;13.50;99.90
32201;DHT22;18701;45.588;5.288;2024-03-22T02:58:45;13.60;99.90
32201;DHT22;18701;45.588;5.288;2024-03-22T03:01:11;13.40;99.90
32201;DHT22;18701;45.588;5.288;2024-03-22T03:03:37;13.50;99.90
32201;DHT22;18701;45.588;5.288;2024-03-22T03:06:02;13.40;99.90
32201;DHT22;18701;45.588;5.288;2024-03-22T03:08:28;13.50;99.90
32201;DHT22;18701;45.588;5.288;2024-03-22T03:10:54;13.40;99.90
32201;DHT22;18701;45.588;5.288;2024-03-22T03:13:19;13.40;99.90
32201;DHT22;18701;45.588;5.288;2024-03-22T03:15:45;13.40;99.90
32201;DHT22;18701;45.588;5.288;2024-03-22T03:18:10;13.20;99.90
32201;DHT22;18701;45.588;5.288;2024-03-22T03:20:36;13.30;99.90
32201;DHT22;18701;45.588;5.288;2024-03-22T03:23:03;13.40;99.90
32201;DHT22;18701;45.588;5.288;2024-03-22T03:25:28;13.40;99.90
32201;DHT22;18701;45.588;5.288;2024-03-22T03:27:54;13.50;99.90
32201;DHT22;18701;45.588;5.288;2024-03-22T03:30:19;13.40;99.90
32201;DHT22;18701;45.588;5.288;2024-03-22T03:32:45;13.40;99.90
32201;DHT22;18701;45.588;5.288;2024-03-22T03:35:11;13.30;99.90
32201;DHT22;18701;45.588;5.288;2024-03-22T03:37:36;13.40;99.90
32201;DHT22;18701;45.588;5.288;2024-03-22T03:40:02;13.20;99.90
32201;DHT22;18701;45.588;5.288;2024-03-22T03:42:27;13.30;99.90
32201;DHT22;18701;45.588;5.288;2024-03-22T03:44:53;13.10;99.90
32201;DHT22;18701;45.588;5.288;2024-03-22T03:47:19;13.30;99.90
32201;DHT22;18701;45.588;5.288;2024-03-22T03:49:47;13.30;99.90
32201;DHT22;18701;45.588;5.288;2024-03-22T03:52:13;13.30;99.90
32201;DHT22;18701;45.588;5.288;2024-03-22T03:54:39;13.40;99.90
32201;DHT22;18701;45.588;5.288;2024-03-22T03:57:05;13.30;99.90
32201;DHT22;18701;45.588;5.288;2024-03-22T03:59:30;13.30;99.90
32201;DHT22;18701;45.588;5.288;2024-03-22T04:01:56;13.20;99.90
32201;DHT22;18701;45.588;5.288;2024-03-22T04:04:22;13.20;99.90
32201;DHT22;18701;45.588;5.288;2024-03-22T04:06:48;13.10;99.90
32201;DHT22;18701;45.588;5.288;2024-03-22T04:09:13;13.10;99.90
32201;DHT22;18701;45.588;5.288;2024-03-22T04:11:39;13.10;99.90
32201;DHT22;18701;45.588;5.288;2024-03-22T04:14:05;13.10;99.90
32201;DHT22;18701;45.588;5.288;2024-03-22T04:16:31;13.00;99.90
32201;DHT22;18701;45.588;5.288;2024-03-22T04:18:57;13.10;99.90
32201;DHT22;18701;45.588;5.288;2024-03-22T04:21:23;13.20;99.90
32201;DHT22;18701;45.588;5.288;2024-03-22T04:23:48;13.20;99.90
32201;DHT22;18701;45.588;5.288;2024-03-22T04:26:15;13.10;99.90
32201;DHT22;18701;45.588;5.288;2024-03-22T04:28:40;13.10;99.90
32201;DHT22;18701;45.588;5.288;2024-03-22T04:31:07;13.20;99.90
32201;DHT22;18701;45.588;5.288;2024-03-22T04:33:34;13.10;99.90
32201;DHT22;18701;45.588;5.288;2024-03-22T04:36:00;13.10;99.90
32201;DHT22;18701;45.588;5.288;2024-03-22T04:38:27;13.20;99.90
32201;DHT22;18701;45.588;5.288;2024-03-22T04:40:53;13.10;99.90
32201;DHT22;18701;45.588;5.288;2024-03-22T04:43:19;13.00;99.90
32201;DHT22;18701;45.588;5.288;2024-03-22T04:45:46;13.10;99.90
32201;DHT22;18701;45.588;5.288;2024-03-22T04:48:17;13.00;99.90
32201;DHT22;18701;45.588;5.288;2024-03-22T04:50:43;13.00;99.90
32201;DHT22;18701;45.588;5.288;2024-03-22T04:53:08;13.00;99.90
32201;DHT22;18701;45.588;5.288;2024-03-22T04:55:34;12.90;99.90
32201;DHT22;18701;45.588;5.288;2024-03-22T04:58:00;12.90;99.90
32201;DHT22;18701;45.588;5.288;2024-03-22T05:00:26;13.00;99.90
32201;DHT22;18701;45.588;5.288;2024-03-22T05:02:52;13.00;99.90
32201;DHT22;18701;45.588;5.288;2024-03-22T05:05:18;12.90;99.90
32201;DHT22;18701;45.588;5.288;2024-03-22T05:07:43;12.90;99.90
32201;DHT22;18701;45.588;5.288;2024-03-22T05:10:09;12.90;99.90
32201;DHT22;18701;45.588;5.288;2024-03-22T05:12:35;12.90;99.90
32201;DHT22;18701;45.588;5.288;2024-03-22T05:15:02;12.60;99.90
32201;DHT22;18701;45.588;5.288;2024-03-22T05:17:29;12.50;99.90
32201;DHT22;18701;45.588;5.288;2024-03-22T05:20:00;12.50;99.90
32201;DHT22;18701;45.588;5.288;2024-03-22T05:22:26;12.60;99.90
32201;DHT22;18701;45.588;5.288;2024-03-22T05:24:51;12.50;99.90
32201;DHT22;18701;45.588;5.288;2024-03-22T05:27:17;12.60;99.90
32201;DHT22;18701;45.588;5.288;2024-03-22T05:29:43;12.60;99.90
32201;DHT22;18701;45.588;5.288;2024-03-22T05:32:09;12.60;99.90
32201;DHT22;18701;45.588;5.288;2024-03-22T05:34:34;12.50;99.90
32201;DHT22;18701;45.588;5.288;2024-03-22T05:37:01;12.50;99.90
32201;DHT22;18701;45.588;5.288;2024-03-22T05:39:27;12.50;99.90
32201;DHT22;18701;45.588;5.288;2024-03-22T05:41:52;12.50;99.90
32201;DHT22;18701;45.588;5.288;2024-03-22T05:44:18;12.30;99.90
32201;DHT22;18701;45.588;5.288;2024-03-22T05:46:43;12.30;99.90
32201;DHT22;18701;45.588;5.288;2024-03-22T05:49:09;12.20;99.90
32201;DHT22;18701;45.588;5.288;2024-03-22T05:51:35;12.20;99.90
32201;DHT22;18701;45.588;5.288;2024-03-22T05:54:00;12.20;99.90
32201;DHT22;18701;45.588;5.288;2024-03-22T05:56:26;12.40;99.90
32201;DHT22;18701;45.588;5.288;2024-03-22T05:58:51;12.20;99.90
32201;DHT22;18701;45.588;5.288;2024-03-22T06:01:17;12.50;99.90
32201;DHT22;18701;45.588;5.288;2024-03-22T06:03:43;12.40;99.90
32201;DHT22;18701;45.588;5.288;2024-03-22T06:06:08;12.30;99.90
32201;DHT22;18701;45.588;5.288;2024-03-22T06:08:34;12.50;99.90
32201;DHT22;18701;45.588;5.288;2024-03-22T06:11:00;12.60;99.90
32201;DHT22;18701;45.588;5.288;2024-03-22T06:13:26;12.60;99.90
32201;DHT22;18701;45.588;5.288;2024-03-22T06:15:52;12.40;99.90
32201;DHT22;18701;45.588;5.288;2024-03-22T06:18:17;12.50;99.90
32201;DHT22;18701;45.588;5.288;2024-03-22T06:20:43;12.40;99.90
32201;DHT22;18701;45.588;5.288;2024-03-22T06:23:09;12.50;99.90
32201;DHT22;18701;45.588;5.288;2024-03-22T06:25:35;12.60;99.90
32201;DHT22;18701;45.588;5.288;2024-03-22T06:28:01;12.70;99.90
32201;DHT22;18701;45.588;5.288;2024-03-22T06:30:27;12.80;99.90
32201;DHT22;18701;45.588;5.288;2024-03-22T06:32:53;12.80;99.90
32201;DHT22;18701;45.588;5.288;2024-03-22T06:35:20;12.90;99.90
32201;DHT22;18701;45.588;5.288;2024-03-22T06:37:46;12.90;99.90
32201;DHT22;18701;45.588;5.288;2024-03-22T06:40:12;12.80;99.90
32201;DHT22;18701;45.588;5.288;2024-03-22T06:42:37;12.90;99.90
32201;DHT22;18701;45.588;5.288;2024-03-22T06:45:03;12.90;99.90
32201;DHT22;18701;45.588;5.288;2024-03-22T06:47:29;12.80;99.90
32201;DHT22;18701;45.588;5.288;2024-03-22T06:49:54;13.00;99.90
32201;DHT22;18701;45.588;5.288;2024-03-22T06:52:20;12.90;99.90
32201;DHT22;18701;45.588;5.288;2024-03-22T06:54:46;13.00;99.90
32201;DHT22;18701;45.588;5.288;2024-03-22T06:57:12;13.00;99.90
32201;DHT22;18701;45.588;5.288;2024-03-22T06:59:37;13.00;99.90
32201;DHT22;18701;45.588;5.288;2024-03-22T07:02:03;13.00;99.90
32201;DHT22;18701;45.588;5.288;2024-03-22T07:04:29;13.00;99.90
32201;DHT22;18701;45.588;5.288;2024-03-22T07:06:54;13.10;99.90
32201;DHT22;18701;45.588;5.288;2024-03-22T07:09:20;13.10;99.90
32201;DHT22;18701;45.588;5.288;2024-03-22T07:11:46;13.10;99.90
32201;DHT22;18701;45.588;5.288;2024-03-22T07:14:11;13.20;99.90
32201;DHT22;18701;45.588;5.288;2024-03-22T07:16:37;13.20;99.90
32201;DHT22;18701;45.588;5.288;2024-03-22T07:19:03;13.40;99.90
32201;DHT22;18701;45.588;5.288;2024-03-22T07:21:29;13.50;99.90
32201;DHT22;18701;45.588;5.288;2024-03-22T07:23:55;13.60;99.90
32201;DHT22;18701;45.588;5.288;2024-03-22T07:26:21;13.80;99.90
32201;DHT22;18701;45.588;5.288;2024-03-22T07:28:46;13.80;99.90
32201;DHT22;18701;45.588;5.288;2024-03-22T07:31:12;13.60;99.90
32201;DHT22;18701;45.588;5.288;2024-03-22T07:33:39;13.70;99.90
32201;DHT22;18701;45.588;5.288;2024-03-22T07:36:05;13.40;99.90
32201;DHT22;18701;45.588;5.288;2024-03-22T07:38:31;13.70;99.90
32201;DHT22;18701;45.588;5.288;2024-03-22T07:40:57;13.80;99.90
32201;DHT22;18701;45.588;5.288;2024-03-22T07:43:22;13.90;99.90
32201;DHT22;18701;45.588;5.288;2024-03-22T07:45:48;14.00;99.90
32201;DHT22;18701;45.588;5.288;2024-03-22T07:48:14;14.10;99.90
32201;DHT22;18701;45.588;5.288;2024-03-22T07:50:40;14.30;99.90
32201;DHT22;18701;45.588;5.288;2024-03-22T07:53:05;14.40;99.90
32201;DHT22;18701;45.588;5.288;2024-03-22T07:55:31;14.50;99.90
32201;DHT22;18701;45.588;5.288;2024-03-22T07:57:56;14.70;99.90
32201;DHT22;18701;45.588;5.288;2024-03-22T08:00:23;14.80;99.90
32201;DHT22;18701;45.588;5.288;2024-03-22T08:02:53;14.90;99.90
32201;DHT22;18701;45.588;5.288;2024-03-22T08:05:20;14.80;99.90
32201;DHT22;18701;45.588;5.288;2024-03-22T08:07:45;14.90;99.90
32201;DHT22;18701;45.588;5.288;2024-03-22T08:10:11;14.90;99.90
32201;DHT22;18701;45.588;5.288;2024-03-22T08:12:37;15.10;99.90
32201;DHT22;18701;45.588;5.288;2024-03-22T08:15:03;15.30;99.90
32201;DHT22;18701;45.588;5.288;2024-03-22T08:17:29;15.20;99.90
32201;DHT22;18701;45.588;5.288;2024-03-22T08:19:54;15.30;99.90
32201;DHT22;18701;45.588;5.288;2024-03-22T08:22:20;15.60;99.90
32201;DHT22;18701;45.588;5.288;2024-03-22T08:24:45;15.60;99.90
32201;DHT22;18701;45.588;5.288;2024-03-22T08:27:11;15.60;99.90
32201;DHT22;18701;45.588;5.288;2024-03-22T08:29:37;15.80;99.90
32201;DHT22;18701;45.588;5.288;2024-03-22T08:32:04;15.90;99.90
32201;DHT22;18701;45.588;5.288;2024-03-22T08:34:30;16.10;99.90
32201;DHT22;18701;45.588;5.288;2024-03-22T08:36:58;16.20;99.90
32201;DHT22;18701;45.588;5.288;2024-03-22T08:39:23;16.20;99.90
32201;DHT22;18701;45.588;5.288;2024-03-22T08:41:50;16.30;99.90
32201;DHT22;18701;45.588;5.288;2024-03-22T08:44:16;16.40;99.90
32201;DHT22;18701;45.588;5.288;2024-03-22T08:46:42;16.50;99.90
32201;DHT22;18701;45.588;5.288;2024-03-22T08:49:07;16.70;99.90
32201;DHT22;18701;45.588;5.288;2024-03-22T08:51:33;16.80;99.90
32201;DHT22;18701;45.588;5.288;2024-03-22T08:53:59;17.00;99.90
32201;DHT22;18701;45.588;5.288;2024-03-22T08:56:26;16.90;99.90
32201;DHT22;18701;45.588;5.288;2024-03-22T08:58:52;16.90;99.90
32201;DHT22;18701;45.588;5.288;2024-03-22T09:01:17;17.10;99.90
32201;DHT22;18701;45.588;5.288;2024-03-22T09:03:43;17.10;99.90
32201;DHT22;18701;45.588;5.288;2024-03-22T09:06:12;17.20;99.90
32201;DHT22;18701;45.588;5.288;2024-03-22T09:08:37;17.40;99.90
32201;DHT22;18701;45.588;5.288;2024-03-22T09:11:03;17.40;99.90
32201;DHT22;18701;45.588;5.288;2024-03-22T09:13:29;17.20;99.90
32201;DHT22;18701;45.588;5.288;2024-03-22T09:15:58;17.50;99.90
32201;DHT22;18701;45.588;5.288;2024-03-22T09:18:24;17.50;99.90
32201;DHT22;18701;45.588;5.288;2024-03-22T09:20:49;17.80;99.90
32201;DHT22;18701;45.588;5.288;2024-03-22T09:23:15;18.00;99.90
32201;DHT22;18701;45.588;5.288;2024-03-22T09:25:41;18.10;99.90
32201;DHT22;18701;45.588;5.288;2024-03-22T09:28:06;18.10;99.90
32201;DHT22;18701;45.588;5.288;2024-03-22T09:30:32;18.10;99.90
32201;DHT22;18701;45.588;5.288;2024-03-22T09:32:58;18.40;99.90
32201;DHT22;18701;45.588;5.288;2024-03-22T09:35:23;18.40;99.90
32201;DHT22;18701;45.588;5.288;2024-03-22T09:37:49;18.30;99.90
32201;DHT22;18701;45.588;5.288;2024-03-22T09:40:14;18.50;99.90
32201;DHT22;18701;45.588;5.288;2024-03-22T09:42:41;18.70;99.90
32201;DHT22;18701;45.588;5.288;2024-03-22T09:45:11;18.10;99.90
32201;DHT22;18701;45.588;5.288;2024-03-22T09:47:37;18.10;99.90
32201;DHT22;18701;45.588;5.288;2024-03-22T09:50:07;18.50;99.90
32201;DHT22;18701;45.588;5.288;2024-03-22T09:52:33;18.60;99.90
32201;DHT22;18701;45.588;5.288;2024-03-22T09:55:00;19.00;99.90
32201;DHT22;18701;45.588;5.288;2024-03-22T09:57:31;19.20;99.90
32201;DHT22;18701;45.588;5.288;2024-03-22T09:59:57;19.30;99.90
32201;DHT22;18701;45.588;5.288;2024-03-22T10:02:23;19.20;99.90
32201;DHT22;18701;45.588;5.288;2024-03-22T10:04:51;19.30;99.90
32201;DHT22;18701;45.588;5.288;2024-03-22T10:07:17;19.00;99.90
32201;DHT22;18701;45.588;5.288;2024-03-22T10:09:43;19.30;99.90
32201;DHT22;18701;45.588;5.288;2024-03-22T10:12:09;19.30;99.90
32201;DHT22;18701;45.588;5.288;2024-03-22T10:14:35;19.40;99.90
32201;DHT22;18701;45.588;5.288;2024-03-22T10:17:02;19.50;99.90
32201;DHT22;18701;45.588;5.288;2024-03-22T10:19:28;19.40;99.90
32201;DHT22;18701;45.588;5.288;2024-03-22T10:22:01;19.50;99.90
32201;DHT22;18701;45.588;5.288;2024-03-22T10:24:28;19.50;99.90
32201;DHT22;18701;45.588;5.288;2024-03-22T10:26:54;19.50;99.90
32201;DHT22;18701;45.588;5.288;2024-03-22T10:29:20;19.50;99.90
32201;DHT22;18701;45.588;5.288;2024-03-22T10:31:50;19.70;99.90
32201;DHT22;18701;45.588;5.288;2024-03-22T10:34:17;19.90;99.90
32201;DHT22;18701;45.588;5.288;2024-03-22T10:36:44;20.30;99.90
32201;DHT22;18701;45.588;5.288;2024-03-22T10:39:10;20.30;99.90
32201;DHT22;18701;45.588;5.288;2024-03-22T10:41:38;20.60;99.90
32201;DHT22;18701;45.588;5.288;2024-03-22T10:44:03;20.70;99.20
32201;DHT22;18701;45.588;5.288;2024-03-22T10:46:30;20.70;97.80
32201;DHT22;18701;45.588;5.288;2024-03-22T10:48:59;20.60;99.20
32201;DHT22;18701;45.588;5.288;2024-03-22T10:51:26;20.70;99.50
32201;DHT22;18701;45.588;5.288;2024-03-22T10:53:54;20.90;98.60
32201;DHT22;18701;45.588;5.288;2024-03-22T10:56:21;21.30;98.10
32201;DHT22;18701;45.588;5.288;2024-03-22T10:58:47;21.30;97.60
32201;DHT22;18701;45.588;5.288;2024-03-22T11:01:25;21.40;96.80
32201;DHT22;18701;45.588;5.288;2024-03-22T11:04:02;21.70;96.90
32201;DHT22;18701;45.588;5.288;2024-03-22T11:06:30;22.00;97.00
32201;DHT22;18701;45.588;5.288;2024-03-22T11:08:59;21.90;97.60
32201;DHT22;18701;45.588;5.288;2024-03-22T11:11:28;22.00;97.00
32201;DHT22;18701;45.588;5.288;2024-03-22T11:13:54;22.10;97.80
32201;DHT22;18701;45.588;5.288;2024-03-22T11:16:21;22.00;96.60
32201;DHT22;18701;45.588;5.288;2024-03-22T11:18:47;22.10;96.40
32201;DHT22;18701;45.588;5.288;2024-03-22T11:21:14;22.10;96.60
32201;DHT22;18701;45.588;5.288;2024-03-22T11:23:40;22.60;96.40
32201;DHT22;18701;45.588;5.288;2024-03-22T11:26:05;22.50;96.50
32201;DHT22;18701;45.588;5.288;2024-03-22T11:28:33;22.70;95.80
32201;DHT22;18701;45.588;5.288;2024-03-22T11:30:59;23.00;94.50
32201;DHT22;18701;45.588;5.288;2024-03-22T11:33:24;22.60;93.70
32201;DHT22;18701;45.588;5.288;2024-03-22T11:35:52;22.70;93.90
32201;DHT22;18701;45.588;5.288;2024-03-22T11:38:18;22.60;93.10
32201;DHT22;18701;45.588;5.288;2024-03-22T11:40:44;22.90;93.00
32201;DHT22;18701;45.588;5.288;2024-03-22T11:43:11;22.90;94.20
32201;DHT22;18701;45.588;5.288;2024-03-22T11:45:39;23.20;93.40
32201;DHT22;18701;45.588;5.288;2024-03-22T11:48:05;23.60;93.10
32201;DHT22;18701;45.588;5.288;2024-03-22T11:50:31;24.00;93.00
32201;DHT22;18701;45.588;5.288;2024-03-22T11:52:57;24.20;93.00
32201;DHT22;18701;45.588;5.288;2024-03-22T11:55:27;23.30;92.80
32201;DHT22;18701;45.588;5.288;2024-03-22T11:57:53;24.10;92.80
32201;DHT22;18701;45.588;5.288;2024-03-22T12:00:19;23.60;91.70
32201;DHT22;18701;45.588;5.288;2024-03-22T12:02:45;23.80;91.00
32201;DHT22;18701;45.588;5.288;2024-03-22T12:05:11;24.10;90.40
32201;DHT22;18701;45.588;5.288;2024-03-22T12:07:37;24.00;88.60
32201;DHT22;18701;45.588;5.288;2024-03-22T12:10:02;23.90;87.80
32201;DHT22;18701;45.588;5.288;2024-03-22T12:12:29;24.20;86.60
32201;DHT22;18701;45.588;5.288;2024-03-22T12:14:55;24.50;85.20
32201;DHT22;18701;45.588;5.288;2024-03-22T12:17:21;24.70;83.20
32201;DHT22;18701;45.588;5.288;2024-03-22T12:19:46;24.60;82.10
32201;DHT22;18701;45.588;5.288;2024-03-22T12:22:13;24.70;82.20
32201;DHT22;18701;45.588;5.288;2024-03-22T12:24:38;25.20;82.10
32201;DHT22;18701;45.588;5.288;2024-03-22T12:27:04;25.20;80.30
32201;DHT22;18701;45.588;5.288;2024-03-22T12:29:33;25.40;78.80
32201;DHT22;18701;45.588;5.288;2024-03-22T12:32:00;25.80;79.50
32201;DHT22;18701;45.588;5.288;2024-03-22T12:34:32;26.10;76.90
32201;DHT22;18701;45.588;5.288;2024-03-22T12:36:59;26.50;74.20
32201;DHT22;18701;45.588;5.288;2024-03-22T12:39:25;26.80;72.70
32201;DHT22;18701;45.588;5.288;2024-03-22T12:41:51;26.40;71.90
32201;DHT22;18701;45.588;5.288;2024-03-22T12:44:16;26.30;71.60
32201;DHT22;18701;45.588;5.288;2024-03-22T12:46:42;26.70;70.60
32201;DHT22;18701;45.588;5.288;2024-03-22T12:49:10;26.10;68.90
32201;DHT22;18701;45.588;5.288;2024-03-22T12:51:36;25.80;68.40
32201;DHT22;18701;45.588;5.288;2024-03-22T12:54:02;26.40;68.90
32201;DHT22;18701;45.588;5.288;2024-03-22T12:56:28;26.30;68.20
32201;DHT22;18701;45.588;5.288;2024-03-22T12:58:54;26.90;69.90
32201;DHT22;18701;45.588;5.288;2024-03-22T13:01:19;27.20;69.80
32201;DHT22;18701;45.588;5.288;2024-03-22T13:03:45;27.20;67.70
32201;DHT22;18701;45.588;5.288;2024-03-22T13:06:12;27.10;67.20
32201;DHT22;18701;45.588;5.288;2024-03-22T13:08:37;27.40;67.90
32201;DHT22;18701;45.588;5.288;2024-03-22T13:11:04;27.60;68.30
32201;DHT22;18701;45.588;5.288;2024-03-22T13:13:29;27.80;66.00
32201;DHT22;18701;45.588;5.288;2024-03-22T13:15:58;27.50;67.20
32201;DHT22;18701;45.588;5.288;2024-03-22T13:18:24;27.20;66.00
32201;DHT22;18701;45.588;5.288;2024-03-22T13:20:49;27.50;67.20
32201;DHT22;18701;45.588;5.288;2024-03-22T13:23:15;27.10;66.90
32201;DHT22;18701;45.588;5.288;2024-03-22T13:25:40;27.50;67.10
32201;DHT22;18701;45.588;5.288;2024-03-22T13:28:06;27.60;66.80
32201;DHT22;18701;45.588;5.288;2024-03-22T13:30:32;27.40;66.30
32201;DHT22;18701;45.588;5.288;2024-03-22T13:32:57;27.20;67.00
32201;DHT22;18701;45.588;5.288;2024-03-22T13:35:24;27.80;66.80
32201;DHT22;18701;45.588;5.288;2024-03-22T13:37:50;28.20;66.10
32201;DHT22;18701;45.588;5.288;2024-03-22T13:40:15;28.70;67.40
32201;DHT22;18701;45.588;5.288;2024-03-22T13:42:41;28.70;65.80
32201;DHT22;18701;45.588;5.288;2024-03-22T13:45:07;28.90;65.90
32201;DHT22;18701;45.588;5.288;2024-03-22T13:47:33;28.70;66.40
32201;DHT22;18701;45.588;5.288;2024-03-22T13:49:59;29.10;64.80
32201;DHT22;18701;45.588;5.288;2024-03-22T13:52:25;28.40;65.10
32201;DHT22;18701;45.588;5.288;2024-03-22T13:54:51;28.20;64.80
32201;DHT22;18701;45.588;5.288;2024-03-22T13:57:16;27.90;65.00
32201;DHT22;18701;45.588;5.288;2024-03-22T13:59:42;28.50;66.00
32201;DHT22;18701;45.588;5.288;2024-03-22T14:02:08;28.30;65.10
32201;DHT22;18701;45.588;5.288;2024-03-22T14:04:34;28.30;66.00
32201;DHT22;18701;45.588;5.288;2024-03-22T14:07:00;27.90;65.50
32201;DHT22;18701;45.588;5.288;2024-03-22T14:09:33;27.60;65.30
32201;DHT22;18701;45.588;5.288;2024-03-22T14:11:59;28.20;65.60
32201;DHT22;18701;45.588;5.288;2024-03-22T14:14:25;27.90;65.70
32201;DHT22;18701;45.588;5.288;2024-03-22T14:16:51;27.50;65.90
32201;DHT22;18701;45.588;5.288;2024-03-22T14:19:17;27.10;66.90
32201;DHT22;18701;45.588;5.288;2024-03-22T14:21:47;28.40;67.40
32201;DHT22;18701;45.588;5.288;2024-03-22T14:24:13;28.50;66.60
32201;DHT22;18701;45.588;5.288;2024-03-22T14:26:39;28.10;66.20
32201;DHT22;18701;45.588;5.288;2024-03-22T14:29:11;27.50;65.60
32201;DHT22;18701;45.588;5.288;2024-03-22T14:31:37;27.70;67.00
32201;DHT22;18701;45.588;5.288;2024-03-22T14:34:06;26.90;66.50
32201;DHT22;18701;45.588;5.288;2024-03-22T14:36:31;27.20;67.10
32201;DHT22;18701;45.588;5.288;2024-03-22T14:38:58;26.80;67.60
32201;DHT22;18701;45.588;5.288;2024-03-22T14:41:24;27.20;67.40
32201;DHT22;18701;45.588;5.288;2024-03-22T14:43:49;27.00;67.40
32201;DHT22;18701;45.588;5.288;2024-03-22T14:46:16;27.80;68.70
32201;DHT22;18701;45.588;5.288;2024-03-22T14:48:44;28.70;67.60
32201;DHT22;18701;45.588;5.288;2024-03-22T14:51:10;28.80;66.60
32201;DHT22;18701;45.588;5.288;2024-03-22T14:53:35;27.70;66.70
32201;DHT22;18701;45.588;5.288;2024-03-22T14:56:02;27.90;67.10
32201;DHT22;18701;45.588;5.288;2024-03-22T14:58:34;28.50;67.10
32201;DHT22;18701;45.588;5.288;2024-03-22T15:01:02;28.40;67.00
32201;DHT22;18701;45.588;5.288;2024-03-22T15:03:27;27.40;66.90
32201;DHT22;18701;45.588;5.288;2024-03-22T15:05:54;27.30;67.60
32201;DHT22;18701;45.588;5.288;2024-03-22T15:08:21;27.00;67.80
32201;DHT22;18701;45.588;5.288;2024-03-22T15:10:47;27.60;67.30
32201;DHT22;18701;45.588;5.288;2024-03-22T15:13:14;28.30;66.90
32201;DHT22;18701;45.588;5.288;2024-03-22T15:15:40;28.40;65.80
32201;DHT22;18701;45.588;5.288;2024-03-22T15:18:07;28.40;66.50
32201;DHT22;18701;45.588;5.288;2024-03-22T15:20:33;27.70;65.80
32201;DHT22;18701;45.588;5.288;2024-03-22T15:22:59;28.40;66.50